Time;durP1;ratioP1;P1;durP2;ratioP2;P2;SDS_P1;SDS_P2;PMS_P1;PMS_P2;Temp;Humidity;BMP_temperature;BMP_pressure;BME280_temperature;BME280_humidity;BME280_pressure;Samples;Min_cycle;Max_cycle;Signal;HPM_P1;HPM_P2
2023/12/12 00:01:12;;;;;;;;;;;;;;;7.53;100.00;97426.98;68083;1275;1016428;-72
2023/12/12 00:07:40;;;;;;;;;;;;;;;7.57;100.00;97421.93;68005;1275;1016297;-74
2023/12/12 00:10:42;;;;;;;;;;;;;;;7.57;100.00;97414.85;68016;1275;1016210;-74
2023/12/12 00:13:45;;;;;;;;;;;;;;;7.56;100.00;97418.86;68062;1275;1016601;-72
2023/12/12 00:16:47;;;;;;;;;;;;;;;7.63;100.00;97420.98;68077;1275;1016436;-75
2023/12/12 00:19:50;;;;;;;;;;;;;;;7.67;100.00;97426.81;68040;1275;1016602;-75
2023/12/12 00:22:53;;;;;;;;;;;;;;;7.67;100.00;97426.48;68004;1275;1016515;-75
2023/12/12 00:25:56;;;;;;;;;;;;;;;7.72;100.00;97428.06;68027;1275;1016799;-74
2023/12/12 00:28:59;;;;;;;;;;;;;;;7.64;100.00;97426.20;68013;1275;1016196;-74
2023/12/12 00:32:01;;;;;;;;;;;;;;;7.68;100.00;97432.70;68041;1275;1016253;-74
2023/12/12 00:35:04;;;;;;;;;;;;;;;7.70;100.00;97436.52;68050;1275;1016029;-74
2023/12/12 00:38:06;;;;;;;;;;;;;;;7.71;100.00;97436.77;68028;1275;1016093;-73
2023/12/12 00:41:09;;;;;;;;;;;;;;;7.74;100.00;97440.73;68010;1275;1016363;-74
2023/12/12 00:44:12;;;;;;;;;;;;;;;7.78;100.00;97443.58;68030;1275;1016382;-74
2023/12/12 00:47:14;;;;;;;;;;;;;;;7.85;100.00;97446.92;68036;1275;1016117;-74
2023/12/12 00:50:17;;;;;;;;;;;;;;;7.88;100.00;97451.23;68004;1275;1016640;-74
2023/12/12 00:53:20;;;;;;;;;;;;;;;7.82;100.00;97454.11;68042;1275;1016357;-75
2023/12/12 00:56:22;;;;;;;;;;;;;;;7.85;100.00;97455.65;68023;1275;1016209;-75
2023/12/12 00:59:25;;;;;;;;;;;;;;;7.86;100.00;97463.21;68033;1275;1016281;-74
2023/12/12 01:02:27;;;;;;;;;;;;;;;7.90;100.00;97467.63;68023;1275;1018928;-75
2023/12/12 01:05:30;;;;;;;;;;;;;;;7.88;100.00;97472.11;68033;1275;1016097;-75
2023/12/12 01:08:32;;;;;;;;;;;;;;;7.90;100.00;97480.21;68015;1275;1016398;-74
2023/12/12 01:11:35;;;;;;;;;;;;;;;7.86;100.00;97481.70;68023;1275;1018880;-74
2023/12/12 01:14:37;;;;;;;;;;;;;;;7.74;100.00;97487.20;68047;1275;1016443;-75
2023/12/12 01:17:40;;;;;;;;;;;;;;;7.62;100.00;97478.83;68043;1275;1016175;-74
2023/12/12 01:20:43;;;;;;;;;;;;;;;7.67;100.00;97491.24;67985;1275;1016331;-74
2023/12/12 01:23:45;;;;;;;;;;;;;;;7.63;100.00;97491.49;68020;1275;1016518;-74
2023/12/12 01:26:48;;;;;;;;;;;;;;;7.67;100.00;97496.43;68051;1275;1016268;-75
2023/12/12 01:29:50;;;;;;;;;;;;;;;7.73;100.00;97499.16;68049;1275;1018035;-74
2023/12/12 01:32:53;;;;;;;;;;;;;;;7.71;100.00;97502.94;68033;1275;1016059;-75
2023/12/12 01:35:55;;;;;;;;;;;;;;;7.77;100.00;97507.23;68035;1275;1016232;-74
2023/12/12 01:38:58;;;;;;;;;;;;;;;7.76;100.00;97504.98;68045;1275;1016437;-74
2023/12/12 01:42:01;;;;;;;;;;;;;;;7.85;100.00;97510.47;68052;1275;1015997;-73
2023/12/12 01:45:03;;;;;;;;;;;;;;;7.87;100.00;97509.27;68011;1275;1016442;-74
2023/12/12 01:48:06;;;;;;;;;;;;;;;7.88;100.00;97515.17;68032;1275;1016190;-74
2023/12/12 01:51:08;;;;;;;;;;;;;;;7.91;100.00;97520.11;68033;1275;1016375;-74
2023/12/12 01:54:11;;;;;;;;;;;;;;;7.93;100.00;97522.45;68042;1275;1016198;-75
2023/12/12 01:57:13;;;;;;;;;;;;;;;7.96;100.00;97528.67;68025;1275;1017783;-74
2023/12/12 02:00:16;;;;;;;;;;;;;;;7.96;100.00;97524.98;67977;1275;1016019;-74
2023/12/12 02:03:18;;;;;;;;;;;;;;;7.92;100.00;97536.77;68000;1275;1016149;-74
2023/12/12 02:06:22;;;;;;;;;;;;;;;7.95;100.00;97537.28;68007;1275;1016608;-74
2023/12/12 02:09:28;;;;;;;;;;;;;;;7.92;100.00;97535.41;67993;1275;1016376;-74
2023/12/12 02:12:31;;;;;;;;;;;;;;;7.91;100.00;97541.40;68054;1275;1016449;-74
2023/12/12 02:15:33;;;;;;;;;;;;;;;7.92;100.00;97542.70;68022;1275;1016470;-74
2023/12/12 02:18:36;;;;;;;;;;;;;;;7.86;100.00;97543.79;68010;1275;1016317;-75
2023/12/12 02:21:39;;;;;;;;;;;;;;;7.79;100.00;97552.13;68035;1275;1016432;-74
2023/12/12 02:24:41;;;;;;;;;;;;;;;7.86;100.00;97553.36;68058;1275;1016121;-73
2023/12/12 02:27:44;;;;;;;;;;;;;;;7.92;100.00;97550.38;68016;1275;1016378;-74
2023/12/12 02:30:46;;;;;;;;;;;;;;;7.94;100.00;97552.80;68032;1275;1016186;-74
2023/12/12 02:33:49;;;;;;;;;;;;;;;7.89;100.00;97557.70;67970;1275;1017782;-74
2023/12/12 02:36:51;;;;;;;;;;;;;;;7.84;100.00;97565.16;68061;1275;1016458;-75
2023/12/12 02:39:54;;;;;;;;;;;;;;;7.98;100.00;97568.21;68016;1275;1016429;-74
2023/12/12 02:42:56;;;;;;;;;;;;;;;7.95;100.00;97575.18;68012;1275;1016359;-73
2023/12/12 02:45:59;;;;;;;;;;;;;;;8.05;100.00;97573.11;68072;1275;1016347;-74
2023/12/12 02:49:02;;;;;;;;;;;;;;;8.01;100.00;97577.06;68049;1275;1015831;-75
2023/12/12 02:52:04;;;;;;;;;;;;;;;7.98;100.00;97584.04;68044;1275;1016400;-74
2023/12/12 02:55:07;;;;;;;;;;;;;;;8.01;100.00;97589.42;68057;1275;1016450;-74
2023/12/12 02:58:09;;;;;;;;;;;;;;;7.94;100.00;97582.96;68052;1275;1016454;-70
2023/12/12 03:01:12;;;;;;;;;;;;;;;8.03;100.00;97589.28;68048;1275;1016382;-74
2023/12/12 03:04:14;;;;;;;;;;;;;;;8.02;100.00;97590.73;68029;1275;1016479;-75
2023/12/12 03:07:17;;;;;;;;;;;;;;;8.06;100.00;97593.09;67995;1275;1015957;-74
2023/12/12 03:10:19;;;;;;;;;;;;;;;8.05;100.00;97595.43;68012;1275;1016291;-74
2023/12/12 03:13:22;;;;;;;;;;;;;;;8.15;100.00;97600.45;68037;1275;1016492;-74
2023/12/12 03:16:25;;;;;;;;;;;;;;;8.14;100.00;97602.46;67992;1275;1016464;-74
2023/12/12 03:19:27;;;;;;;;;;;;;;;8.07;100.00;97606.08;67990;1275;1016451;-74
2023/12/12 03:22:30;;;;;;;;;;;;;;;8.08;100.00;97616.28;68053;1275;1016330;-73
2023/12/12 03:25:32;;;;;;;;;;;;;;;8.04;100.00;97623.30;68027;1275;1016185;-74
2023/12/12 03:28:35;;;;;;;;;;;;;;;8.05;100.00;97620.67;67991;1275;1018877;-74
2023/12/12 03:31:38;;;;;;;;;;;;;;;8.04;100.00;97617.95;68039;1275;1016406;-74
2023/12/12 03:34:42;;;;;;;;;;;;;;;7.97;100.00;97627.30;68043;1275;1016423;-75
2023/12/12 03:37:44;;;;;;;;;;;;;;;8.14;100.00;97626.48;68027;1275;1015773;-75
2023/12/12 03:40:47;;;;;;;;;;;;;;;8.10;100.00;97624.51;67998;1275;1016784;-75
2023/12/12 03:43:49;;;;;;;;;;;;;;;8.15;100.00;97629.90;68002;1275;1019572;-75
2023/12/12 03:46:52;;;;;;;;;;;;;;;8.03;100.00;97632.31;68037;1275;1016316;-75
2023/12/12 03:49:55;;;;;;;;;;;;;;;8.07;100.00;97640.50;68004;1275;1015860;-74
2023/12/12 03:52:57;;;;;;;;;;;;;;;8.03;100.00;97639.25;68028;1275;1016019;-74
2023/12/12 03:56:00;;;;;;;;;;;;;;;7.97;100.00;97645.21;68079;1275;1016457;-74
2023/12/12 03:59:02;;;;;;;;;;;;;;;8.06;100.00;97645.48;68075;1275;1016014;-74
2023/12/12 04:02:05;;;;;;;;;;;;;;;8.14;100.00;97648.73;68013;1275;1016794;-74
2023/12/12 04:05:09;;;;;;;;;;;;;;;8.23;100.00;97656.52;68005;1275;1016222;-73
2023/12/12 04:08:13;;;;;;;;;;;;;;;8.30;100.00;97658.92;68036;1275;1016462;-75
2023/12/12 04:11:15;;;;;;;;;;;;;;;8.25;100.00;97661.75;67986;1275;1016269;-74
2023/12/12 04:14:18;;;;;;;;;;;;;;;8.21;100.00;97658.86;68071;1275;1016426;-74
2023/12/12 04:17:20;;;;;;;;;;;;;;;8.21;100.00;97657.50;68051;1275;1016412;-74
2023/12/12 04:20:23;;;;;;;;;;;;;;;8.09;100.00;97667.17;67996;1275;1016212;-75
2023/12/12 04:23:26;;;;;;;;;;;;;;;8.04;100.00;97668.11;67965;1275;1016446;-75
2023/12/12 04:26:28;;;;;;;;;;;;;;;8.05;100.00;97671.28;68065;1275;1016619;-74
2023/12/12 04:29:31;;;;;;;;;;;;;;;8.06;100.00;97677.48;67980;1275;1016497;-74
2023/12/12 04:32:33;;;;;;;;;;;;;;;8.07;100.00;97673.42;68014;1275;1017117;-74
2023/12/12 04:35:46;;;;;;;;;;;;;;;;;;;;;
2023/12/12 04:38:59;;;;;;;;;;;;;;;7.92;100.00;97678.98;68009;1275;1016291;-75
2023/12/12 04:42:01;;;;;;;;;;;;;;;7.94;100.00;97678.85;68001;1275;1020467;-73
2023/12/12 04:45:04;;;;;;;;;;;;;;;7.88;100.00;97692.17;68074;1275;1016677;-74
2023/12/12 04:48:06;;;;;;;;;;;;;;;7.88;100.00;97695.13;68043;1275;1016459;-74
2023/12/12 04:51:09;;;;;;;;;;;;;;;7.86;100.00;97701.15;68008;1275;1016044;-74
2023/12/12 04:54:12;;;;;;;;;;;;;;;7.91;100.00;97701.00;68052;1275;1016375;-72
2023/12/12 04:57:14;;;;;;;;;;;;;;;7.97;100.00;97702.13;68062;1275;1017364;-75
2023/12/12 05:00:17;;;;;;;;;;;;;;;7.88;100.00;97704.84;68010;1275;1016467;-75
2023/12/12 05:03:20;;;;;;;;;;;;;;;7.84;100.00;97713.64;68031;1275;1016056;-74
2023/12/12 05:06:22;;;;;;;;;;;;;;;7.91;100.00;97710.17;68056;1275;1016317;-73
2023/12/12 05:09:25;;;;;;;;;;;;;;;7.95;100.00;97711.19;68048;1275;1016504;-74
2023/12/12 05:12:27;;;;;;;;;;;;;;;7.90;100.00;97710.45;67978;1275;1016452;-74
2023/12/12 05:15:30;;;;;;;;;;;;;;;7.95;100.00;97710.47;68042;1275;1018737;-74
2023/12/12 05:18:32;;;;;;;;;;;;;;;7.98;100.00;97708.00;68063;1275;1016193;-74
2023/12/12 05:21:43;;;;;;;;;;;;;;;7.99;100.00;97710.55;67942;1275;1016175;-73
2023/12/12 05:24:46;;;;;;;;;;;;;;;7.96;100.00;97712.14;68035;1275;1019392;-75
2023/12/12 05:27:49;;;;;;;;;;;;;;;8.01;100.00;97714.77;65865;1275;1016546;-75
2023/12/12 05:30:52;;;;;;;;;;;;;;;7.95;100.00;97720.42;68006;1275;1016368;-75
2023/12/12 05:33:54;;;;;;;;;;;;;;;7.95;100.00;97719.82;68057;1275;1018692;-75
2023/12/12 05:36:57;;;;;;;;;;;;;;;7.97;100.00;97728.80;68034;1275;1016147;-75
2023/12/12 05:39:59;;;;;;;;;;;;;;;8.09;100.00;97727.98;68002;1275;1016507;-75
2023/12/12 05:43:02;;;;;;;;;;;;;;;8.01;100.00;97732.55;68009;1275;1016300;-75
2023/12/12 05:46:04;;;;;;;;;;;;;;;8.03;100.00;97734.27;68030;1275;1018038;-75
2023/12/12 05:49:09;;;;;;;;;;;;;;;8.15;100.00;97739.56;68044;1275;1016296;-75
2023/12/12 05:52:13;;;;;;;;;;;;;;;8.08;100.00;97745.95;68069;1275;1016438;-75
2023/12/12 05:55:16;;;;;;;;;;;;;;;8.13;100.00;97747.01;68007;1275;1016103;-75
2023/12/12 05:58:18;;;;;;;;;;;;;;;8.11;100.00;97752.57;67926;1275;1016438;-75
2023/12/12 06:01:22;;;;;;;;;;;;;;;8.07;100.00;97750.72;68048;1275;1016330;-75
2023/12/12 06:04:26;;;;;;;;;;;;;;;8.07;100.00;97751.30;68053;1275;1015930;-75
2023/12/12 06:07:28;;;;;;;;;;;;;;;8.09;100.00;97759.13;67991;1275;1016617;-75
2023/12/12 06:10:31;;;;;;;;;;;;;;;8.08;100.00;97766.69;68037;1275;1016183;-73
2023/12/12 06:13:33;;;;;;;;;;;;;;;7.99;100.00;97774.94;68049;1275;1016494;-75
2023/12/12 06:16:37;;;;;;;;;;;;;;;7.93;100.00;97779.85;68006;1275;1016741;-74
2023/12/12 06:19:40;;;;;;;;;;;;;;;7.85;100.00;97783.40;68037;1275;1016473;-74
2023/12/12 06:22:42;;;;;;;;;;;;;;;7.86;100.00;97789.23;68009;1275;1018567;-73
2023/12/12 06:25:48;;;;;;;;;;;;;;;7.99;100.00;97793.25;68036;1275;1016416;-74
2023/12/12 06:28:50;;;;;;;;;;;;;;;8.01;100.00;97800.07;67991;1275;1016728;-73
2023/12/12 06:31:53;;;;;;;;;;;;;;;8.11;100.00;97795.90;67996;1275;1016441;-73
2023/12/12 06:34:55;;;;;;;;;;;;;;;7.99;100.00;97795.98;68071;1275;1015859;-74
2023/12/12 06:37:59;;;;;;;;;;;;;;;8.06;100.00;97804.10;67993;1275;1016365;-74
2023/12/12 06:41:03;;;;;;;;;;;;;;;8.08;100.00;97810.58;68050;1275;1016212;-74
2023/12/12 06:44:06;;;;;;;;;;;;;;;8.15;100.00;97810.98;68028;1275;1015978;-73
2023/12/12 06:47:09;;;;;;;;;;;;;;;8.13;100.00;97812.14;67956;1275;1015825;-73
2023/12/12 06:50:11;;;;;;;;;;;;;;;8.15;100.00;97819.30;67994;1275;1016288;-74
2023/12/12 06:53:14;;;;;;;;;;;;;;;8.17;100.00;97820.80;67989;1275;1016406;-74
2023/12/12 06:56:16;;;;;;;;;;;;;;;8.19;100.00;97829.23;68003;1275;1017606;-73
2023/12/12 06:59:19;;;;;;;;;;;;;;;8.10;100.00;97833.80;67983;1275;1016946;-74
2023/12/12 07:02:42;;;;;;;;;;;;;;;8.33;100.00;97835.02;68047;1275;1016532;-74
2023/12/12 07:05:45;;;;;;;;;;;;;;;8.21;100.00;97842.97;67945;1275;1015973;-74
2023/12/12 07:08:48;;;;;;;;;;;;;;;8.26;100.00;97852.36;68066;1275;1016473;-74
2023/12/12 07:11:50;;;;;;;;;;;;;;;8.14;100.00;97851.80;68035;1275;1016490;-74
2023/12/12 07:14:54;;;;;;;;;;;;;;;8.18;100.00;97851.53;67999;1275;1019632;-73
2023/12/12 07:17:58;;;;;;;;;;;;;;;8.21;100.00;97852.90;68007;1275;1016288;-73
2023/12/12 07:21:00;;;;;;;;;;;;;;;8.37;100.00;97854.50;68014;1275;1016499;-74
2023/12/12 07:24:04;;;;;;;;;;;;;;;8.38;100.00;97864.64;67999;1275;1016328;-75
2023/12/12 07:27:07;;;;;;;;;;;;;;;8.28;100.00;97866.02;68012;1275;1016467;-74
2023/12/12 07:30:10;;;;;;;;;;;;;;;8.41;100.00;97871.44;67972;1275;1016473;-74
2023/12/12 07:33:13;;;;;;;;;;;;;;;8.25;100.00;97879.05;68005;1275;1016340;-74
2023/12/12 07:36:15;;;;;;;;;;;;;;;8.22;100.00;97883.30;67989;1275;1016458;-74
2023/12/12 07:39:18;;;;;;;;;;;;;;;8.25;100.00;97886.74;68005;1275;1016619;-74
2023/12/12 07:42:20;;;;;;;;;;;;;;;8.12;100.00;97895.10;68030;1275;1016669;-74
2023/12/12 07:45:23;;;;;;;;;;;;;;;8.24;100.00;97899.71;68007;1275;1016000;-74
2023/12/12 07:48:25;;;;;;;;;;;;;;;8.24;100.00;97904.74;67999;1275;1016432;-74
2023/12/12 07:51:29;;;;;;;;;;;;;;;8.33;100.00;97912.05;67995;1275;1016781;-74
2023/12/12 07:54:32;;;;;;;;;;;;;;;8.12;100.00;97915.30;67981;1275;1016501;-73
2023/12/12 07:57:34;;;;;;;;;;;;;;;8.08;100.00;97916.63;68034;1275;1018288;-74
2023/12/12 08:00:37;;;;;;;;;;;;;;;8.09;100.00;97920.93;68029;1275;1019224;-74
2023/12/12 08:03:39;;;;;;;;;;;;;;;7.89;100.00;97917.48;68008;1275;1016392;-73
2023/12/12 08:06:42;;;;;;;;;;;;;;;8.17;100.00;97919.52;68039;1275;1016342;-74
2023/12/12 08:09:45;;;;;;;;;;;;;;;8.31;100.00;97918.05;68079;1275;1017003;-74
2023/12/12 08:12:47;;;;;;;;;;;;;;;8.27;100.00;97924.90;68015;1275;1015910;-74
2023/12/12 08:15:50;;;;;;;;;;;;;;;8.23;100.00;97925.73;67990;1275;1016487;-74
2023/12/12 08:18:52;;;;;;;;;;;;;;;8.19;100.00;97938.70;68033;1275;1016331;-74
2023/12/12 08:21:55;;;;;;;;;;;;;;;8.17;100.00;97940.91;68047;1275;1016204;-71
2023/12/12 08:24:57;;;;;;;;;;;;;;;8.21;100.00;97946.59;68003;1275;1016335;-74
2023/12/12 08:28:00;;;;;;;;;;;;;;;8.23;100.00;97953.42;68016;1275;1016262;-74
2023/12/12 08:31:03;;;;;;;;;;;;;;;8.04;100.00;97961.77;68013;1275;1016291;-74
2023/12/12 08:34:05;;;;;;;;;;;;;;;8.04;100.00;97962.86;68054;1275;1016093;-74
2023/12/12 08:37:28;;;;;;;;;;;;;;;8.02;100.00;97960.16;68032;1275;1018221;-73
2023/12/12 08:40:31;;;;;;;;;;;;;;;8.29;100.00;97966.46;68070;1275;1016115;-74
2023/12/12 08:43:35;;;;;;;;;;;;;;;8.37;100.00;97967.48;68037;1275;1016494;-73
2023/12/12 08:46:37;;;;;;;;;;;;;;;8.37;100.00;97976.73;68059;1275;1018909;-73
2023/12/12 08:49:40;;;;;;;;;;;;;;;8.41;100.00;97978.77;68004;1275;1016678;-73
2023/12/12 08:52:42;;;;;;;;;;;;;;;8.47;100.00;97980.29;68024;1275;1016441;-74
2023/12/12 08:55:46;;;;;;;;;;;;;;;8.61;100.00;97978.17;68042;1275;1016510;-73
2023/12/12 08:58:50;;;;;;;;;;;;;;;8.63;100.00;97993.19;67986;1275;1016478;-74
2023/12/12 09:01:54;;;;;;;;;;;;;;;8.44;100.00;97991.44;67970;1275;1016448;-74
2023/12/12 09:04:56;;;;;;;;;;;;;;;8.37;100.00;97997.45;68015;1275;1016401;-73
2023/12/12 09:07:59;;;;;;;;;;;;;;;8.43;100.00;98002.67;68043;1275;1016445;-73
2023/12/12 09:11:03;;;;;;;;;;;;;;;8.34;100.00;98006.52;68039;1275;1016392;-74
2023/12/12 09:14:06;;;;;;;;;;;;;;;8.39;100.00;97998.20;67990;1275;1016161;-74
2023/12/12 09:17:10;;;;;;;;;;;;;;;8.40;100.00;98011.37;68042;1275;1016391;-73
2023/12/12 09:20:13;;;;;;;;;;;;;;;8.38;100.00;98015.86;68025;1275;1016425;-74
2023/12/12 09:23:16;;;;;;;;;;;;;;;8.19;100.00;98035.39;68013;1275;1016338;-74
2023/12/12 09:26:19;;;;;;;;;;;;;;;8.12;100.00;98028.65;68000;1275;1018256;-74
2023/12/12 09:29:22;;;;;;;;;;;;;;;7.99;100.00;98026.71;68017;1275;1016572;-73
2023/12/12 09:32:25;;;;;;;;;;;;;;;8.06;100.00;98021.20;68069;1275;1016470;-74
2023/12/12 09:35:27;;;;;;;;;;;;;;;8.08;100.00;98029.63;68053;1275;1016420;-74
2023/12/12 09:38:30;;;;;;;;;;;;;;;8.05;100.00;98025.95;67993;1275;1016365;-76
2023/12/12 09:41:32;;;;;;;;;;;;;;;8.01;100.00;98034.05;67997;1275;1016456;-74
2023/12/12 09:44:35;;;;;;;;;;;;;;;8.06;100.00;98030.77;68063;1275;1016425;-74
2023/12/12 09:47:38;;;;;;;;;;;;;;;8.08;100.00;98036.75;68064;1275;1015848;-74
2023/12/12 09:50:40;;;;;;;;;;;;;;;8.06;100.00;98032.35;68019;1275;1018881;-73
2023/12/12 09:53:46;;;;;;;;;;;;;;;8.14;100.00;98035.17;68005;1275;1016471;-74
2023/12/12 09:56:49;;;;;;;;;;;;;;;8.30;100.00;98030.30;68023;1275;1015996;-74
2023/12/12 09:59:51;;;;;;;;;;;;;;;8.33;100.00;98036.23;68017;1275;1016383;-74
2023/12/12 10:02:55;;;;;;;;;;;;;;;8.25;100.00;98041.92;67989;1275;1016377;-74
2023/12/12 10:05:57;;;;;;;;;;;;;;;8.25;100.00;98049.40;68061;1275;1016376;-74
2023/12/12 10:09:00;;;;;;;;;;;;;;;8.24;100.00;98052.11;67993;1275;1016458;-74
2023/12/12 10:12:03;;;;;;;;;;;;;;;8.23;100.00;98053.90;68008;1275;1016496;-73
2023/12/12 10:15:05;;;;;;;;;;;;;;;8.11;100.00;98049.95;68046;1275;1016320;-73
2023/12/12 10:18:08;;;;;;;;;;;;;;;8.09;100.00;98049.94;68042;1275;1016429;-74
2023/12/12 10:21:11;;;;;;;;;;;;;;;8.04;100.00;98052.19;68043;1275;1016404;-74
2023/12/12 10:24:13;;;;;;;;;;;;;;;7.99;100.00;98053.17;68011;1275;1016162;-74
2023/12/12 10:27:16;;;;;;;;;;;;;;;7.93;100.00;98057.35;67988;1275;1016463;-74
2023/12/12 10:30:18;;;;;;;;;;;;;;;7.93;100.00;98057.16;67978;1275;1016452;-74
2023/12/12 10:33:22;;;;;;;;;;;;;;;7.92;100.00;98058.15;67997;1275;1016466;-74
2023/12/12 10:36:26;;;;;;;;;;;;;;;7.87;100.00;98058.45;67979;1275;1016591;-74
2023/12/12 10:39:29;;;;;;;;;;;;;;;7.81;100.00;98053.92;68003;1275;1015964;-74
2023/12/12 10:42:31;;;;;;;;;;;;;;;7.83;100.00;98050.86;68004;1275;1016478;-74
2023/12/12 10:45:34;;;;;;;;;;;;;;;7.93;100.00;98050.08;67996;1275;1016875;-74
2023/12/12 10:48:36;;;;;;;;;;;;;;;8.01;100.00;98051.65;67994;1275;1016439;-74
2023/12/12 10:51:39;;;;;;;;;;;;;;;8.07;100.00;98054.08;67965;1275;1016451;-74
2023/12/12 10:54:43;;;;;;;;;;;;;;;8.13;100.00;98058.73;68003;1275;1016469;-75
2023/12/12 10:57:48;;;;;;;;;;;;;;;8.18;100.00;98062.59;67976;1275;1016067;-74
2023/12/12 11:00:50;;;;;;;;;;;;;;;8.18;100.00;98071.48;67991;1275;1016357;-74
2023/12/12 11:03:53;;;;;;;;;;;;;;;8.18;100.00;98073.37;67997;1275;1016441;-74
2023/12/12 11:06:56;;;;;;;;;;;;;;;8.25;100.00;98072.27;68045;1275;1016478;-73
2023/12/12 11:09:59;;;;;;;;;;;;;;;8.22;100.00;98069.69;67984;1275;1016477;-74
2023/12/12 11:13:01;;;;;;;;;;;;;;;8.20;100.00;98070.30;67988;1275;1016249;-74
2023/12/12 11:16:04;;;;;;;;;;;;;;;8.15;100.00;98074.94;68006;1275;1016494;-73
2023/12/12 11:19:07;;;;;;;;;;;;;;;8.18;100.00;98077.03;68025;1275;1016181;-74
2023/12/12 11:22:22;;;;;;;;;;;;;;;;;;;;;
2023/12/12 11:25:35;;;;;;;;;;;;;;;8.15;100.00;98089.43;68020;1275;1018089;-74
2023/12/12 11:28:37;;;;;;;;;;;;;;;8.15;100.00;98089.27;67996;1275;1016014;-73
2023/12/12 11:31:40;;;;;;;;;;;;;;;8.14;100.00;98092.81;68042;1275;1016466;-74
2023/12/12 11:34:43;;;;;;;;;;;;;;;8.12;100.00;98095.89;67962;1275;1016427;-74
2023/12/12 11:37:47;;;;;;;;;;;;;;;8.22;100.00;98098.76;67953;1275;1016185;-73
2023/12/12 11:40:49;;;;;;;;;;;;;;;8.22;100.00;98100.67;67972;1275;1017949;-74
2023/12/12 11:43:52;;;;;;;;;;;;;;;8.16;100.00;98099.63;68018;1275;1015858;-73
2023/12/12 11:46:54;;;;;;;;;;;;;;;8.07;100.00;98093.59;67927;1275;1016141;-74
2023/12/12 11:49:57;;;;;;;;;;;;;;;8.18;100.00;98096.73;67979;1275;1016179;-74
2023/12/12 11:53:01;;;;;;;;;;;;;;;8.25;100.00;98097.54;67971;1275;1016377;-74
2023/12/12 11:56:04;;;;;;;;;;;;;;;8.20;100.00;98097.78;68007;1275;1017931;-74
2023/12/12 11:59:07;;;;;;;;;;;;;;;8.16;100.00;98103.11;68027;1275;1015894;-74
2023/12/12 12:02:09;;;;;;;;;;;;;;;8.09;100.00;98103.24;67969;1275;1016153;-74
2023/12/12 12:05:14;;;;;;;;;;;;;;;8.07;100.00;98102.27;68032;1275;1016307;-74
2023/12/12 12:08:19;;;;;;;;;;;;;;;8.15;100.00;98103.01;67967;1275;1017910;-74
2023/12/12 12:11:23;;;;;;;;;;;;;;;8.09;100.00;98099.59;68034;1275;1016464;-74
2023/12/12 12:14:27;;;;;;;;;;;;;;;8.11;100.00;98102.40;67985;1275;1016505;-74
2023/12/12 12:17:32;;;;;;;;;;;;;;;8.03;100.00;98103.21;67997;1275;1016448;-73
2023/12/12 12:20:34;;;;;;;;;;;;;;;7.94;100.00;98100.81;68007;1275;1016398;-73
2023/12/12 12:23:37;;;;;;;;;;;;;;;7.91;100.00;98106.22;68056;1275;1016380;-74
2023/12/12 12:26:40;;;;;;;;;;;;;;;8.03;100.00;98099.55;67967;1275;1016848;-74
2023/12/12 12:29:42;;;;;;;;;;;;;;;8.28;100.00;98104.61;68002;1275;1018107;-74
2023/12/12 12:32:45;;;;;;;;;;;;;;;8.30;100.00;98106.79;68037;1275;1018265;-73
2023/12/12 12:35:47;;;;;;;;;;;;;;;8.36;100.00;98107.98;68067;1275;1017187;-74
2023/12/12 12:38:50;;;;;;;;;;;;;;;8.35;100.00;98107.34;67977;1275;1016398;-74
2023/12/12 12:41:53;;;;;;;;;;;;;;;8.04;100.00;98108.55;68009;1275;1016488;-73
2023/12/12 12:44:57;;;;;;;;;;;;;;;7.99;100.00;98113.38;67995;1275;1018105;-74
2023/12/12 12:47:59;;;;;;;;;;;;;;;7.91;100.00;98111.28;68062;1275;1016418;-74
2023/12/12 12:51:02;;;;;;;;;;;;;;;7.85;100.00;98106.80;68003;1275;1016389;-74
2023/12/12 12:54:04;;;;;;;;;;;;;;;7.80;100.00;98105.82;68006;1275;1016514;-74
2023/12/12 12:57:08;;;;;;;;;;;;;;;7.89;100.00;98104.97;68021;1275;1016350;-73
2023/12/12 13:00:12;;;;;;;;;;;;;;;8.02;100.00;98098.57;68002;1275;1016635;-74
2023/12/12 13:03:15;;;;;;;;;;;;;;;8.14;100.00;98101.89;68050;1275;1016465;-74
2023/12/12 13:06:18;;;;;;;;;;;;;;;8.17;100.00;98106.38;68028;1275;1016120;-74
2023/12/12 13:09:21;;;;;;;;;;;;;;;8.19;100.00;98099.77;68037;1275;1018036;-74
2023/12/12 13:12:25;;;;;;;;;;;;;;;8.06;100.00;98102.54;68046;1275;1018204;-73
2023/12/12 13:15:28;;;;;;;;;;;;;;;7.99;100.00;98103.27;68019;1275;1017414;-74
2023/12/12 13:18:30;;;;;;;;;;;;;;;8.06;100.00;98104.98;67944;1275;1015716;-74
2023/12/12 13:21:33;;;;;;;;;;;;;;;8.16;100.00;98103.30;68023;1275;1016520;-74
2023/12/12 13:24:35;;;;;;;;;;;;;;;8.03;100.00;98102.20;68057;1275;1016669;-74
2023/12/12 13:27:38;;;;;;;;;;;;;;;8.02;100.00;98106.81;68022;1275;1016570;-74
2023/12/12 13:30:41;;;;;;;;;;;;;;;8.00;100.00;98108.50;68023;1275;1016898;-74
2023/12/12 13:33:43;;;;;;;;;;;;;;;8.02;100.00;98105.90;68073;1275;1016230;-74
2023/12/12 13:36:46;;;;;;;;;;;;;;;8.11;100.00;98110.23;68034;1275;1016422;-74
2023/12/12 13:39:49;;;;;;;;;;;;;;;8.16;100.00;98113.59;68014;1275;1016726;-74
2023/12/12 13:42:55;;;;;;;;;;;;;;;8.19;100.00;98115.48;67947;1275;1016176;-74
2023/12/12 13:45:58;;;;;;;;;;;;;;;8.14;100.00;98119.75;68039;1274;1018670;-74
2023/12/12 13:49:01;;;;;;;;;;;;;;;8.13;100.00;98117.95;67949;1275;1016200;-74
2023/12/12 13:52:04;;;;;;;;;;;;;;;8.23;100.00;98120.63;68015;1275;1016271;-74
2023/12/12 13:58:29;;;;;;;;;;;;;;;8.10;100.00;98115.89;68016;1275;1017168;-73
2023/12/12 14:01:32;;;;;;;;;;;;;;;8.09;100.00;98112.95;67998;1275;1016400;-73
2023/12/12 14:04:35;;;;;;;;;;;;;;;8.06;100.00;98111.55;67961;1275;1016528;-73
2023/12/12 14:07:37;;;;;;;;;;;;;;;8.19;100.00;98112.89;67956;1275;1016561;-74
2023/12/12 14:10:40;;;;;;;;;;;;;;;8.21;100.00;98114.30;67914;1275;1016169;-74
2023/12/12 14:13:43;;;;;;;;;;;;;;;8.22;100.00;98110.57;67976;1275;1016550;-74
2023/12/12 14:16:45;;;;;;;;;;;;;;;8.29;100.00;98107.05;68015;1275;1018258;-75
2023/12/12 14:19:48;;;;;;;;;;;;;;;8.36;100.00;98106.58;68032;1275;1016435;-74
2023/12/12 14:22:51;;;;;;;;;;;;;;;8.35;100.00;98105.10;67975;1275;1016304;-74
2023/12/12 14:25:53;;;;;;;;;;;;;;;8.21;100.00;98104.41;68039;1275;1016380;-74
2023/12/12 14:28:56;;;;;;;;;;;;;;;8.20;100.00;98105.34;68059;1275;1016373;-73
2023/12/12 14:31:58;;;;;;;;;;;;;;;8.15;100.00;98103.88;68058;1275;1016411;-74
2023/12/12 14:35:03;;;;;;;;;;;;;;;8.17;100.00;98106.05;68004;1275;1016185;-74
2023/12/12 14:38:08;;;;;;;;;;;;;;;8.36;100.00;98101.56;68025;1275;1016500;-74
2023/12/12 14:41:11;;;;;;;;;;;;;;;8.46;100.00;98100.57;68000;1275;1016182;-74
2023/12/12 14:44:13;;;;;;;;;;;;;;;8.53;100.00;98100.33;67954;1275;1015590;-74
2023/12/12 14:47:16;;;;;;;;;;;;;;;8.57;100.00;98102.88;67996;1275;1016521;-74
2023/12/12 14:50:19;;;;;;;;;;;;;;;8.68;100.00;98099.88;68001;1275;1015910;-74
2023/12/12 14:53:21;;;;;;;;;;;;;;;8.66;100.00;98097.73;67938;1275;1018032;-74
2023/12/12 14:56:24;;;;;;;;;;;;;;;8.62;100.00;98101.63;68002;1275;1016179;-74
2023/12/12 14:59:37;;;;;;;;;;;;;;;8.61;100.00;98100.34;68036;1275;1016476;-74
2023/12/12 15:02:40;;;;;;;;;;;;;;;8.50;100.00;98099.77;68027;1275;1016164;-74
2023/12/12 15:05:43;;;;;;;;;;;;;;;8.48;100.00;98099.08;68009;1275;1018098;-74
2023/12/12 15:08:45;;;;;;;;;;;;;;;8.40;100.00;98101.27;67980;1275;1019332;-74
2023/12/12 15:11:48;;;;;;;;;;;;;;;8.49;100.00;98103.54;68036;1275;1016602;-73
2023/12/12 15:14:51;;;;;;;;;;;;;;;8.49;100.00;98104.73;68028;1275;1016413;-74
2023/12/12 15:17:53;;;;;;;;;;;;;;;8.50;100.00;98106.58;67991;1275;1016497;-73
2023/12/12 15:21:21;;;;;;;;;;;;;;;8.37;100.00;98103.52;67965;1275;1018221;-73
2023/12/12 15:24:24;;;;;;;;;;;;;;;8.32;100.00;98101.20;68036;1275;1016281;-74
2023/12/12 15:27:27;;;;;;;;;;;;;;;8.27;100.00;98101.52;68016;1275;1016022;-74
2023/12/12 15:30:31;;;;;;;;;;;;;;;8.20;100.00;98104.82;67985;1275;1016362;-74
2023/12/12 15:33:34;;;;;;;;;;;;;;;8.18;100.00;98109.44;67937;1275;1016446;-74
2023/12/12 15:36:37;;;;;;;;;;;;;;;8.01;100.00;98105.95;67957;1275;1016875;-74